createdAt,value
2023-04-17T00:02:41.230Z,32.80
2023-04-17T00:05:28.116Z,29.73
2023-04-17T00:08:14.781Z,29.67
2023-04-17T00:11:08.075Z,35.50
2023-04-17T00:13:54.873Z,32.23
2023-04-17T00:16:41.321Z,31.03
2023-04-17T00:19:27.980Z,32.63
2023-04-17T00:22:14.043Z,33.73
2023-04-17T00:25:00.853Z,33.60
2023-04-17T00:27:47.092Z,32.00
2023-04-17T00:30:33.375Z,33.87
2023-04-17T00:33:19.662Z,36.40
2023-04-17T00:36:06.469Z,38.80
2023-04-17T00:38:52.751Z,30.70
2023-04-17T00:41:38.982Z,32.70
2023-04-17T00:44:25.492Z,37.53
2023-04-17T00:47:12.878Z,34.37
2023-04-17T00:49:59.522Z,36.60
2023-04-17T00:52:47.451Z,35.90
2023-04-17T00:55:35.547Z,38.37
2023-04-17T00:58:22.349Z,40.83
2023-04-17T01:01:09.307Z,35.20
2023-04-17T01:03:56.387Z,39.60
2023-04-17T01:06:43.231Z,36.27
2023-04-17T01:09:30.767Z,43.60
2023-04-17T01:12:21.355Z,37.87
2023-04-17T01:15:08.100Z,35.87
2023-04-17T01:17:54.650Z,38.90
2023-04-17T01:20:41.173Z,34.43
2023-04-17T01:23:28.252Z,45.47
2023-04-17T01:26:25.579Z,35.07
2023-04-17T01:29:12.749Z,35.33
2023-04-17T01:31:59.241Z,37.53
2023-04-17T01:34:45.797Z,37.47
2023-04-17T01:37:32.465Z,38.07
2023-04-17T01:40:18.785Z,38.77
2023-04-17T01:43:05.314Z,39.60
2023-04-17T01:45:51.393Z,37.80
2023-04-17T01:48:37.968Z,35.50
2023-04-17T01:51:24.424Z,35.30
2023-04-17T01:54:11.259Z,32.83
2023-04-17T01:56:57.804Z,37.17
2023-04-17T01:59:44.679Z,31.40
2023-04-17T02:02:30.861Z,35.43
2023-04-17T02:05:17.297Z,33.37
2023-04-17T02:08:03.936Z,34.20
2023-04-17T02:10:50.354Z,31.17
2023-04-17T02:13:36.978Z,31.97
2023-04-17T02:16:23.712Z,30.47
2023-04-17T02:19:10.063Z,31.10
2023-04-17T02:21:56.925Z,32.33
2023-04-17T02:24:43.176Z,32.93
2023-04-17T02:27:29.928Z,29.40
2023-04-17T02:30:16.458Z,31.70
2023-04-17T02:33:03.328Z,28.03
2023-04-17T02:35:50.537Z,31.63
2023-04-17T02:38:42.191Z,33.63
2023-04-17T02:41:28.690Z,28.33
2023-04-17T02:44:15.251Z,32.43
2023-04-17T02:47:01.415Z,31.30
2023-04-17T02:49:51.643Z,29.67
2023-04-17T02:52:38.112Z,31.30
2023-04-17T02:55:24.939Z,34.80
2023-04-17T02:58:11.364Z,32.50
2023-04-17T03:01:04.141Z,32.80
2023-04-17T03:03:55.772Z,32.03
2023-04-17T03:06:43.087Z,26.90
2023-04-17T03:09:30.962Z,31.70
2023-04-17T03:12:17.477Z,31.00
2023-04-17T03:15:04.064Z,30.43
2023-04-17T03:17:50.751Z,31.00
2023-04-17T03:20:37.144Z,38.80
2023-04-17T03:23:23.970Z,33.87
2023-04-17T03:26:10.263Z,32.83
2023-04-17T03:28:57.126Z,38.43
2023-04-17T03:31:43.664Z,30.07
2023-04-17T03:34:31.541Z,29.90
2023-04-17T03:37:18.541Z,33.17
2023-04-17T03:40:06.556Z,29.17
2023-04-17T03:42:53.419Z,29.23
2023-04-17T03:45:39.944Z,27.83
2023-04-17T03:48:26.381Z,26.50
2023-04-17T03:51:13.137Z,25.77
2023-04-17T03:53:59.522Z,30.77
2023-04-17T03:56:46.429Z,25.50
2023-04-17T03:59:33.386Z,26.77
2023-04-17T04:02:20.111Z,30.30
2023-04-17T04:05:08.343Z,24.70
2023-04-17T04:07:56.115Z,27.13
2023-04-17T04:10:49.299Z,22.87
2023-04-17T04:13:41.664Z,24.30
2023-04-17T04:16:28.492Z,27.20
2023-04-17T04:19:24.176Z,23.30
2023-04-17T04:22:13.528Z,21.00
2023-04-17T04:25:06.887Z,26.10
2023-04-17T04:28:06.266Z,27.27
2023-04-17T04:30:53.049Z,25.53
2023-04-17T04:33:41.397Z,23.50
2023-04-17T04:36:30.237Z,24.17
2023-04-17T04:39:39.833Z,25.63
2023-04-17T04:42:29.349Z,28.87
2023-04-17T04:45:31.954Z,24.17
2023-04-17T04:48:21.223Z,27.47
2023-04-17T04:51:07.723Z,22.43
2023-04-17T04:53:54.309Z,22.37
2023-04-17T04:56:44.810Z,19.00
2023-04-17T04:59:32.658Z,21.90
2023-04-17T05:02:46.953Z,26.27
2023-04-17T05:05:34.167Z,33.93
2023-04-17T05:08:21.415Z,32.17
2023-04-17T05:11:16.690Z,35.33
2023-04-17T05:14:03.397Z,22.33
2023-04-17T05:16:55.586Z,24.50
2023-04-17T05:19:42.441Z,24.80
2023-04-17T05:22:30.061Z,26.97
2023-04-17T05:25:23.639Z,19.30
2023-04-17T05:28:11.025Z,19.03
2023-04-17T05:30:57.760Z,19.83
2023-04-17T05:33:52.667Z,19.97
2023-04-17T05:36:39.618Z,21.17
2023-04-17T05:39:25.863Z,17.20
2023-04-17T05:42:12.281Z,21.77
2023-04-17T05:44:59.217Z,17.10
2023-04-17T05:47:45.903Z,17.10
2023-04-17T05:50:32.150Z,18.00
2023-04-17T05:53:18.645Z,16.17
2023-04-17T05:56:10.348Z,20.83
2023-04-17T05:58:57.095Z,14.77
2023-04-17T06:01:44.515Z,17.00
2023-04-17T06:04:32.027Z,15.33
2023-04-17T06:07:19.494Z,14.73
2023-04-17T06:10:06.817Z,14.90
2023-04-17T06:12:53.806Z,14.67
2023-04-17T06:15:40.815Z,15.73
2023-04-17T06:18:28.472Z,12.73
2023-04-17T06:21:14.986Z,15.00
2023-04-17T06:24:01.431Z,15.20
2023-04-17T06:26:48.137Z,15.70
2023-04-17T06:29:35.005Z,15.57
2023-04-17T06:32:23.212Z,15.67
2023-04-17T06:35:11.435Z,14.27
2023-04-17T06:38:12.435Z,13.27
2023-04-17T06:40:58.931Z,14.53
2023-04-17T06:43:45.344Z,14.67
2023-04-17T06:46:33.738Z,13.37
2023-04-17T06:49:23.421Z,11.40
2023-04-17T06:52:10.158Z,19.27
2023-04-17T06:54:56.709Z,21.10
2023-04-17T06:57:43.366Z,14.53
2023-04-17T07:00:30.164Z,15.10
2023-04-17T07:03:21.617Z,14.87
2023-04-17T07:06:09.368Z,11.83
2023-04-17T07:08:55.994Z,12.13
2023-04-17T07:11:42.607Z,11.70
2023-04-17T07:14:28.899Z,11.50
2023-04-17T07:17:15.457Z,12.33
2023-04-17T07:20:01.673Z,11.57
2023-04-17T07:22:49.887Z,13.43
2023-04-17T07:25:36.355Z,12.50
2023-04-17T07:28:23.180Z,14.80
2023-04-17T07:31:09.704Z,14.67
2023-04-17T07:33:55.993Z,14.43
2023-04-17T07:36:42.559Z,12.37
2023-04-17T07:39:31.531Z,11.93
2023-04-17T07:42:18.253Z,12.83
2023-04-17T07:45:06.032Z,13.13
2023-04-17T07:47:53.117Z,14.37
2023-04-17T07:50:39.497Z,10.80
2023-04-17T07:53:28.531Z,12.53
2023-04-17T07:56:14.874Z,11.40
2023-04-17T07:59:02.464Z,13.57
2023-04-17T08:01:49.584Z,12.27
2023-04-17T08:04:36.190Z,13.47
2023-04-17T08:07:22.875Z,11.07
2023-04-17T08:10:09.985Z,10.23
2023-04-17T08:12:56.739Z,14.00
2023-04-17T08:15:43.927Z,13.73
2023-04-17T08:18:32.278Z,10.17
2023-04-17T08:21:18.850Z,9.77
2023-04-17T08:24:05.289Z,10.03
2023-04-17T08:26:51.617Z,11.47
2023-04-17T08:29:39.753Z,12.17
2023-04-17T08:32:25.977Z,12.30
2023-04-17T08:35:14.378Z,11.27
2023-04-17T08:38:00.933Z,11.17
2023-04-17T08:40:52.001Z,9.90
2023-04-17T08:43:40.214Z,10.47
2023-04-17T08:46:27.336Z,10.77
2023-04-17T08:49:14.940Z,10.77
2023-04-17T08:52:05.552Z,9.97
2023-04-17T08:54:52.089Z,10.00
2023-04-17T08:58:04.283Z,11.83
2023-04-17T09:00:50.885Z,11.63
2023-04-17T09:03:47.174Z,9.67
2023-04-17T09:06:54.093Z,9.27
2023-04-17T09:09:46.736Z,9.40
2023-04-17T09:12:33.338Z,10.33
2023-04-17T09:15:20.121Z,10.80
2023-04-17T09:18:21.458Z,8.10
2023-04-17T09:21:08.819Z,9.90
2023-04-17T09:23:59.313Z,11.03
2023-04-17T09:26:45.728Z,8.97
2023-04-17T09:29:31.968Z,10.17
2023-04-17T09:32:18.360Z,8.77
2023-04-17T09:35:06.100Z,9.37
2023-04-17T09:37:54.575Z,9.40
2023-04-17T09:40:42.105Z,7.50
2023-04-17T09:43:43.203Z,8.37
2023-04-17T09:46:38.107Z,7.97
2023-04-17T09:49:40.473Z,6.50
2023-04-17T09:52:28.668Z,6.23
2023-04-17T09:55:16.673Z,7.30
2023-04-17T09:58:05.276Z,7.27
2023-04-17T10:00:52.172Z,7.10
2023-04-17T10:03:41.858Z,6.67
2023-04-17T10:06:31.003Z,5.67
2023-04-17T10:09:17.402Z,5.67
2023-04-17T10:12:05.339Z,9.67
2023-04-17T10:14:52.756Z,5.43
2023-04-17T10:17:39.337Z,5.67
2023-04-17T10:20:28.224Z,6.90
2023-04-17T10:23:34.638Z,6.93
2023-04-17T10:26:27.945Z,6.70
2023-04-17T10:29:14.776Z,5.97
2023-04-17T10:32:10.590Z,6.23
2023-04-17T10:34:59.230Z,5.13
2023-04-17T10:38:01.854Z,4.43
2023-04-17T10:40:50.722Z,6.80
2023-04-17T10:43:44.533Z,7.43
2023-04-17T10:46:31.091Z,5.90
2023-04-17T10:49:17.842Z,4.73
2023-04-17T10:52:04.196Z,4.57
2023-04-17T10:55:07.909Z,4.83
2023-04-17T10:57:59.944Z,3.80
2023-04-17T11:00:51.230Z,2.90
2023-04-17T11:03:38.878Z,3.47
2023-04-17T11:06:28.850Z,5.43
2023-04-17T11:09:16.209Z,5.30
2023-04-17T11:12:03.229Z,3.60
2023-04-17T11:14:49.439Z,3.57
2023-04-17T11:17:40.116Z,5.53
2023-04-17T11:20:35.816Z,4.27
2023-04-17T11:23:22.975Z,3.97
2023-04-17T11:26:09.777Z,4.73
2023-04-17T11:28:56.314Z,5.17
2023-04-17T11:31:43.856Z,4.83
2023-04-17T11:34:30.729Z,4.93
2023-04-17T11:37:17.377Z,3.93
2023-04-17T11:40:10.800Z,4.93
2023-04-17T11:42:57.590Z,4.53
2023-04-17T11:45:45.990Z,4.13
2023-04-17T11:48:32.836Z,5.43
2023-04-17T11:51:19.362Z,4.57
2023-04-17T11:54:05.825Z,6.60
2023-04-17T11:57:07.110Z,4.83
2023-04-17T11:59:53.709Z,4.07
2023-04-17T12:02:40.426Z,3.57
2023-04-17T12:05:28.576Z,4.37
2023-04-17T12:08:15.569Z,4.87
2023-04-17T12:11:02.006Z,3.20
2023-04-17T12:13:50.014Z,4.00
2023-04-17T12:16:36.502Z,3.93
2023-04-17T12:19:25.475Z,3.90
2023-04-17T12:22:11.723Z,3.80
2023-04-17T12:24:58.324Z,5.67
2023-04-17T12:27:45.319Z,4.00
2023-04-17T12:30:35.952Z,3.67
2023-04-17T12:33:22.881Z,4.37
2023-04-17T12:36:09.740Z,5.20
2023-04-17T12:38:56.215Z,4.17
2023-04-17T12:41:42.631Z,5.33
2023-04-17T12:44:29.124Z,4.43
2023-04-17T12:47:16.544Z,4.03
2023-04-17T12:50:06.878Z,5.57
2023-04-17T12:52:53.201Z,3.67
2023-04-17T12:55:44.247Z,6.10
2023-04-17T12:58:31.117Z,5.90
2023-04-17T13:01:17.577Z,6.07
2023-04-17T13:04:04.621Z,4.10
2023-04-17T13:06:51.446Z,4.80
2023-04-17T13:09:38.040Z,4.07
2023-04-17T13:12:25.851Z,5.90
2023-04-17T13:15:15.518Z,5.13
2023-04-17T13:18:02.699Z,3.53
2023-04-17T13:20:49.508Z,4.17
2023-04-17T13:23:35.893Z,5.53
2023-04-17T13:26:22.148Z,4.13
2023-04-17T13:29:08.584Z,4.23
2023-04-17T13:31:55.069Z,4.90
2023-04-17T13:34:41.826Z,4.73
2023-04-17T13:37:28.274Z,3.93
2023-04-17T13:40:17.216Z,5.00
2023-04-17T13:43:05.990Z,3.33
2023-04-17T13:45:54.941Z,4.13
2023-04-17T13:48:42.920Z,5.20
2023-04-17T13:51:29.699Z,4.77
2023-04-17T13:54:16.111Z,4.70
2023-04-17T13:57:02.272Z,5.03
2023-04-17T13:59:48.834Z,5.60
2023-04-17T14:02:35.660Z,3.73
2023-04-17T14:05:22.259Z,4.93
2023-04-17T14:08:08.657Z,5.07
2023-04-17T14:10:54.858Z,4.60
2023-04-17T14:13:41.084Z,3.57
2023-04-17T14:16:27.586Z,8.57
2023-04-17T14:19:15.018Z,4.63
2023-04-17T14:22:01.806Z,5.73
2023-04-17T14:24:48.672Z,3.53
2023-04-17T14:27:36.278Z,3.53
2023-04-17T14:30:22.922Z,3.20
2023-04-17T14:33:09.195Z,4.23
2023-04-17T14:35:56.804Z,5.00
2023-04-17T14:38:42.973Z,4.43
2023-04-17T14:41:31.635Z,4.07
2023-04-17T14:44:18.226Z,3.80
2023-04-17T14:47:04.805Z,2.87
2023-04-17T14:49:51.829Z,4.13
2023-04-17T14:52:38.378Z,4.87
2023-04-17T14:55:25.148Z,5.40
2023-04-17T14:58:11.496Z,3.73
2023-04-17T15:00:57.846Z,2.83
2023-04-17T15:03:48.141Z,3.90
2023-04-17T15:06:35.404Z,4.50
2023-04-17T15:09:21.957Z,5.43
2023-04-17T15:12:08.581Z,3.73
2023-04-17T15:14:56.436Z,5.73
2023-04-17T15:17:42.971Z,2.40
2023-04-17T15:20:29.702Z,5.57
2023-04-17T15:23:17.613Z,3.40
2023-04-17T15:26:04.621Z,7.37
2023-04-17T15:28:51.093Z,6.43
2023-04-17T15:31:37.989Z,3.77
2023-04-17T15:34:24.957Z,3.63
2023-04-17T15:37:12.162Z,3.17
2023-04-17T15:39:58.702Z,3.87
2023-04-17T15:42:45.009Z,4.10
2023-04-17T15:45:31.948Z,3.40
2023-04-17T15:48:18.297Z,3.77
2023-04-17T15:51:04.919Z,3.43
2023-04-17T15:53:51.208Z,3.87
2023-04-17T15:56:37.555Z,5.03
2023-04-17T15:59:24.041Z,5.20
2023-04-17T16:02:14.009Z,3.13
2023-04-17T16:05:00.663Z,4.47
2023-04-17T16:07:47.561Z,3.57
2023-04-17T16:10:34.544Z,2.83
2023-04-17T16:13:21.044Z,2.90
2023-04-17T16:16:08.045Z,3.27
2023-04-17T16:18:54.609Z,6.07
2023-04-17T16:21:41.303Z,4.20
2023-04-17T16:24:27.592Z,4.00
2023-04-17T16:27:13.832Z,3.43
2023-04-17T16:30:00.448Z,2.80
2023-04-17T16:32:48.789Z,4.20
2023-04-17T16:35:36.302Z,3.83
2023-04-17T16:38:22.909Z,2.43
2023-04-17T16:41:09.289Z,2.53
2023-04-17T16:43:55.373Z,3.23
2023-04-17T16:46:59.286Z,2.73
2023-04-17T16:49:47.953Z,5.57
2023-04-17T16:52:34.920Z,2.43
2023-04-17T16:55:21.205Z,1.93
2023-04-17T16:58:07.616Z,3.00
2023-04-17T17:00:54.151Z,3.33
2023-04-17T17:03:43.172Z,5.83
2023-04-17T17:06:31.259Z,2.70
2023-04-17T17:09:17.825Z,1.57
2023-04-17T17:12:04.606Z,2.07
2023-04-17T17:14:51.426Z,2.17
2023-04-17T17:17:37.759Z,1.70
2023-04-17T17:20:24.386Z,1.87
2023-04-17T17:23:10.656Z,1.93
2023-04-17T17:25:57.011Z,1.97
2023-04-17T17:28:43.462Z,2.10
2023-04-17T17:31:30.061Z,1.90
2023-04-17T17:34:25.971Z,1.70
2023-04-17T17:37:13.632Z,1.60
2023-04-17T17:39:59.991Z,1.77
2023-04-17T17:42:47.774Z,2.03
2023-04-17T17:45:37.394Z,1.50
2023-04-17T17:48:23.771Z,1.53
2023-04-17T17:51:10.137Z,2.50
2023-04-17T17:53:56.624Z,1.63
2023-04-17T17:56:43.140Z,2.43
2023-04-17T17:59:29.796Z,1.80
2023-04-17T18:02:16.677Z,1.43
2023-04-17T18:05:03.343Z,1.80
2023-04-17T18:07:50.591Z,1.50
2023-04-17T18:10:37.401Z,1.60
2023-04-17T18:13:24.145Z,1.97
2023-04-17T18:16:10.696Z,1.40
2023-04-17T18:18:59.774Z,2.20
2023-04-17T18:21:47.700Z,2.27
2023-04-17T18:24:34.922Z,2.53
2023-04-17T18:27:21.875Z,3.00
2023-04-17T18:30:09.366Z,2.10
2023-04-17T18:32:55.968Z,1.90
2023-04-17T18:35:42.545Z,2.83
2023-04-17T18:38:29.302Z,2.67
2023-04-17T18:41:16.075Z,2.50
2023-04-17T18:44:02.666Z,3.53
2023-04-17T18:46:49.133Z,3.43
2023-04-17T18:49:35.763Z,3.30
2023-04-17T18:52:22.269Z,2.87
2023-04-17T18:55:09.398Z,3.17
2023-04-17T18:57:55.648Z,3.00
2023-04-17T19:00:42.188Z,2.97
2023-04-17T19:03:28.906Z,3.03
2023-04-17T19:06:15.452Z,3.50
2023-04-17T19:09:01.774Z,4.50
2023-04-17T19:11:48.279Z,3.43
2023-04-17T19:14:35.306Z,4.47
2023-04-17T19:17:21.492Z,2.90
2023-04-17T19:20:08.852Z,3.70
2023-04-17T19:22:57.083Z,3.60
2023-04-17T19:25:43.387Z,3.97
2023-04-17T19:28:29.865Z,6.13
2023-04-17T19:31:16.363Z,4.90
2023-04-17T19:34:02.699Z,3.93
2023-04-17T19:36:49.298Z,4.27
2023-04-17T19:39:36.038Z,7.23
2023-04-17T19:42:22.488Z,5.47
2023-04-17T19:45:09.431Z,5.03
2023-04-17T19:47:57.087Z,4.13
2023-04-17T19:50:43.757Z,4.83
2023-04-17T19:53:32.184Z,7.00
2023-04-17T19:56:18.920Z,5.03
2023-04-17T19:59:05.941Z,7.93
2023-04-17T20:01:52.526Z,4.93
2023-04-17T20:04:39.645Z,7.07
2023-04-17T20:07:26.277Z,7.93
2023-04-17T20:10:13.270Z,5.77
2023-04-17T20:12:59.584Z,6.90
2023-04-17T20:15:45.987Z,5.57
2023-04-17T20:18:33.742Z,8.10
2023-04-17T20:21:20.210Z,6.70
2023-04-17T20:24:06.769Z,9.23
2023-04-17T20:26:53.216Z,6.70
2023-04-17T20:29:39.763Z,7.13
2023-04-17T20:32:26.001Z,7.33
2023-04-17T20:35:12.684Z,6.67
2023-04-17T20:37:59.008Z,6.77
2023-04-17T20:40:45.194Z,6.87
2023-04-17T20:43:32.576Z,7.20
2023-04-17T20:46:19.042Z,9.37
2023-04-17T20:49:05.728Z,7.90
2023-04-17T20:51:52.194Z,8.23
2023-04-17T20:54:38.524Z,8.73
2023-04-17T20:57:25.282Z,9.20
2023-04-17T21:00:12.471Z,8.43
2023-04-17T21:02:59.089Z,9.33
2023-04-17T21:05:45.584Z,10.40
2023-04-17T21:08:31.807Z,8.10
2023-04-17T21:11:18.251Z,9.37
2023-04-17T21:14:04.724Z,9.50
2023-04-17T21:16:54.340Z,8.17
2023-04-17T21:19:41.202Z,9.17
2023-04-17T21:22:27.711Z,8.90
2023-04-17T21:25:14.634Z,9.13
2023-04-17T21:28:01.272Z,10.17
2023-04-17T21:30:48.080Z,10.47
2023-04-17T21:33:34.667Z,7.73
2023-04-17T21:36:22.516Z,9.37
2023-04-17T21:39:09.573Z,10.03
2023-04-17T21:41:57.379Z,9.93
2023-04-17T21:44:43.708Z,8.33
2023-04-17T21:47:30.170Z,10.53
2023-04-17T21:50:16.783Z,9.13
2023-04-17T21:53:03.501Z,9.47
2023-04-17T21:55:49.922Z,16.63
2023-04-17T21:58:36.140Z,9.10
2023-04-17T22:01:22.426Z,8.93
2023-04-17T22:04:09.043Z,12.77
2023-04-17T22:06:55.472Z,10.17
2023-04-17T22:09:42.183Z,10.90
2023-04-17T22:12:28.762Z,13.03
2023-04-17T22:15:14.908Z,11.00
2023-04-17T22:18:01.688Z,12.73
2023-04-17T22:20:48.283Z,15.17
2023-04-17T22:23:34.468Z,13.70
2023-04-17T22:26:21.497Z,12.97
2023-04-17T22:29:08.176Z,11.73
2023-04-17T22:31:54.478Z,12.63
2023-04-17T22:34:42.418Z,12.73
2023-04-17T22:37:29.875Z,13.30
2023-04-17T22:40:16.154Z,12.77
2023-04-17T22:43:02.837Z,11.67
2023-04-17T22:45:49.277Z,15.30
2023-04-17T22:48:35.714Z,12.93
2023-04-17T22:51:22.372Z,12.90
2023-04-17T22:54:21.571Z,16.60
2023-04-17T22:57:10.633Z,14.50
2023-04-17T22:59:57.350Z,15.60
2023-04-17T23:02:43.677Z,13.10
2023-04-17T23:05:30.339Z,13.70
2023-04-17T23:08:16.708Z,16.83
2023-04-17T23:11:04.792Z,18.90
2023-04-17T23:13:51.393Z,15.83
2023-04-17T23:16:37.706Z,14.60
2023-04-17T23:19:24.446Z,19.10
2023-04-17T23:22:10.887Z,16.57
2023-04-17T23:25:00.199Z,18.73
2023-04-17T23:27:46.550Z,15.73
2023-04-17T23:30:33.044Z,19.13
2023-04-17T23:33:19.189Z,14.90
2023-04-17T23:36:06.563Z,16.67
2023-04-17T23:38:53.704Z,16.13
2023-04-17T23:41:42.644Z,12.77
2023-04-17T23:44:28.984Z,21.53
2023-04-17T23:47:15.988Z,13.60
2023-04-17T23:50:03.529Z,13.50
2023-04-17T23:52:50.224Z,14.83
2023-04-17T23:55:36.770Z,12.07
2023-04-17T23:58:23.117Z,15.00
